createdAt,value
2019-04-23T00:01:49.249Z,38.80
2019-04-23T00:04:16.877Z,38.80
2019-04-23T00:07:08.154Z,38.60
2019-04-23T00:09:27.681Z,38.80
2019-04-23T00:11:59.869Z,39.00
2019-04-23T00:14:43.658Z,39.10
2019-04-23T00:17:04.649Z,39.20
2019-04-23T00:19:43.321Z,39.30
2019-04-23T00:22:20.306Z,39.30
2019-04-23T00:27:45.750Z,39.40
2019-04-23T00:30:22.557Z,39.60
2019-04-23T00:32:36.329Z,39.40
2019-04-23T00:37:35.236Z,39.20
2019-04-23T00:40:19.061Z,39.00
2019-04-23T00:42:44.697Z,39.10
2019-04-23T00:45:07.871Z,39.50
2019-04-23T00:47:46.096Z,39.60
2019-04-23T00:50:21.271Z,39.40
2019-04-23T00:52:46.827Z,39.50
2019-04-23T00:55:31.275Z,39.40
2019-04-23T00:57:48.847Z,39.50
2019-04-23T01:00:23.855Z,39.80
2019-04-23T01:02:53.144Z,40.20
2019-04-23T01:05:27.585Z,39.80
2019-04-23T01:07:49.794Z,39.60
2019-04-23T01:10:52.562Z,39.70
2019-04-23T01:13:22.907Z,39.70
2019-04-23T01:15:57.705Z,39.80
2019-04-23T01:20:58.877Z,39.90
2019-04-23T01:23:37.766Z,39.90
2019-04-23T01:26:21.006Z,39.80
2019-04-23T01:31:31.141Z,39.80
2019-04-23T01:33:55.428Z,39.70
2019-04-23T01:36:33.080Z,39.80
2019-04-23T01:39:08.456Z,40.10
2019-04-23T01:41:33.594Z,40.40
2019-04-23T01:44:06.933Z,40.30
2019-04-23T01:46:45.858Z,40.20
2019-04-23T01:49:14.935Z,40.10
2019-04-23T01:51:56.345Z,39.80
2019-04-23T01:54:20.663Z,40.20
2019-04-23T01:56:47.382Z,40.50
2019-04-23T01:59:38.921Z,40.80
2019-04-23T02:04:28.889Z,41.10
2019-04-23T02:07:04.490Z,41.00
2019-04-23T02:09:26.064Z,40.90
2019-04-23T02:12:04.155Z,40.90
2019-04-23T02:14:36.478Z,41.10
2019-04-23T02:17:04.549Z,41.10
2019-04-23T02:19:40.497Z,41.00
2019-04-23T02:22:19.360Z,40.90
2019-04-23T02:24:49.586Z,40.80
2019-04-23T02:27:22.402Z,40.80
2019-04-23T02:32:31.813Z,40.70
2019-04-23T02:37:51.625Z,40.90
2019-04-23T02:42:51.942Z,40.90
2019-04-23T02:45:02.153Z,40.70
2019-04-23T02:47:48.509Z,40.70
2019-04-23T02:55:20.802Z,40.70
2019-04-23T02:57:50.402Z,40.60
2019-04-23T03:03:01.868Z,41.80
2019-04-23T03:05:24.526Z,41.10
2019-04-23T03:10:31.706Z,41.20
2019-04-23T03:13:11.925Z,41.30
2019-04-23T03:15:57.179Z,41.40
2019-04-23T03:18:31.483Z,41.70
2019-04-23T03:21:21.803Z,41.50
2019-04-23T03:23:50.059Z,41.30
2019-04-23T03:26:45.421Z,41.40
2019-04-23T03:35:09.291Z,41.60
2019-04-23T03:37:09.059Z,41.60
2019-04-23T03:39:32.549Z,41.60
2019-04-23T03:44:26.316Z,41.80
2019-04-23T03:49:36.976Z,42.10
2019-04-23T03:52:02.957Z,42.10
2019-04-23T03:54:42.222Z,42.00
2019-04-23T03:57:16.867Z,42.10
2019-04-23T03:59:46.762Z,42.30
2019-04-23T04:02:20.601Z,42.40
2019-04-23T04:07:22.168Z,42.20
2019-04-23T04:09:47.656Z,42.40
2019-04-23T04:12:21.355Z,42.60
2019-04-23T04:14:57.706Z,42.90
2019-04-23T04:17:19.766Z,42.90
2019-04-23T04:19:56.926Z,42.90
2019-04-23T04:22:49.493Z,42.80
2019-04-23T04:25:02.078Z,42.90
2019-04-23T04:27:45.271Z,43.10
2019-04-23T04:32:54.535Z,43.10
2019-04-23T04:40:24.098Z,43.50
2019-04-23T04:42:42.294Z,43.60
2019-04-23T04:45:28.113Z,43.70
2019-04-23T04:47:49.348Z,43.90
2019-04-23T04:50:35.608Z,43.70
2019-04-23T04:57:58.236Z,43.80
2019-04-23T05:00:39.924Z,43.80
2019-04-23T05:03:12.598Z,44.10
2019-04-23T05:05:51.584Z,44.50
2019-04-23T05:07:54.771Z,44.20
2019-04-23T05:15:39.101Z,44.30
2019-04-23T05:18:20.617Z,44.30
2019-04-23T05:20:46.301Z,44.30
2019-04-23T05:23:19.217Z,44.20
2019-04-23T05:25:44.730Z,44.40
2019-04-23T05:30:57.545Z,44.50
2019-04-23T05:33:21.906Z,44.20
2019-04-23T05:38:37.445Z,44.30
2019-04-23T05:41:03.737Z,44.30
2019-04-23T05:43:27.855Z,44.40
2019-04-23T05:46:09.658Z,44.50
2019-04-23T05:48:35.363Z,44.50
2019-04-23T05:56:06.448Z,45.00
2019-04-23T05:58:46.374Z,45.10
2019-04-23T06:04:19.510Z,45.30
2019-04-23T06:09:10.897Z,45.40
2019-04-23T06:11:45.236Z,45.40
2019-04-23T06:14:17.404Z,45.20
2019-04-23T06:16:41.977Z,45.30
2019-04-23T06:19:18.952Z,45.60
2019-04-23T06:24:29.273Z,45.30
2019-04-23T06:26:52.352Z,45.50
2019-04-23T06:29:26.084Z,45.50
2019-04-23T06:31:54.146Z,45.50
2019-04-23T06:34:31.316Z,45.60
2019-04-23T06:36:57.251Z,45.50
2019-04-23T06:39:36.866Z,45.40
2019-04-23T06:42:00.446Z,45.10
2019-04-23T06:44:40.725Z,45.10
2019-04-23T06:47:06.915Z,45.00
2019-04-23T06:49:49.407Z,45.20
2019-04-23T06:52:18.964Z,44.80
2019-04-23T06:54:57.486Z,44.80
2019-04-23T06:57:22.415Z,44.60
2019-04-23T06:59:55.305Z,44.30
2019-04-23T07:05:05.211Z,44.60
2019-04-23T07:10:05.485Z,44.80
2019-04-23T07:15:32.150Z,44.80
2019-04-23T07:17:46.584Z,44.60
2019-04-23T07:22:53.887Z,44.10
2019-04-23T07:25:23.954Z,43.80
2019-04-23T07:27:53.112Z,44.00
2019-04-23T07:33:01.863Z,44.10
2019-04-23T07:35:36.531Z,44.00
2019-04-23T07:38:31.510Z,43.90
2019-04-23T07:40:54.384Z,43.80
2019-04-23T07:43:34.930Z,44.00
2019-04-23T07:46:20.254Z,44.40
2019-04-23T07:48:38.870Z,44.90
2019-04-23T07:51:14.553Z,43.90
2019-04-23T07:53:48.218Z,43.40
2019-04-23T07:56:21.233Z,42.90
2019-04-23T07:58:48.038Z,43.20
2019-04-23T08:01:17.991Z,43.60
2019-04-23T08:06:19.222Z,42.90
2019-04-23T08:08:58.044Z,42.80
2019-04-23T08:11:42.650Z,42.30
2019-04-23T08:13:59.055Z,41.50
2019-04-23T08:19:13.991Z,42.10
2019-04-23T08:21:43.818Z,42.30
2019-04-23T08:26:53.569Z,42.60
2019-04-23T08:29:28.738Z,42.80
2019-04-23T08:32:06.907Z,42.50
2019-04-23T08:39:43.331Z,42.10
2019-04-23T08:45:07.109Z,41.90
2019-04-23T08:47:27.356Z,41.40
2019-04-23T08:49:50.777Z,41.20
2019-04-23T08:52:48.254Z,41.20
2019-04-23T08:55:00.475Z,41.00
2019-04-23T09:00:14.167Z,40.60
2019-04-23T09:02:55.201Z,41.00
2019-04-23T09:05:11.092Z,40.80
2019-04-23T09:07:42.564Z,41.00
2019-04-23T09:10:15.390Z,40.60
2019-04-23T09:12:46.003Z,40.60
2019-04-23T09:15:18.547Z,40.40
2019-04-23T09:17:47.540Z,39.70
2019-04-23T09:20:27.768Z,40.30
2019-04-23T09:22:42.179Z,39.70
2019-04-23T09:27:45.304Z,39.10
2019-04-23T09:30:18.772Z,38.90
2019-04-23T09:32:57.178Z,38.70
2019-04-23T09:35:30.769Z,38.70
2019-04-23T09:38:21.896Z,38.40
2019-04-23T09:44:07.850Z,38.70
2019-04-23T09:46:52.948Z,38.80
2019-04-23T09:51:52.961Z,38.30
2019-04-23T09:54:24.222Z,39.10
2019-04-23T09:56:52.063Z,38.20
2019-04-23T10:02:23.692Z,38.70
2019-04-23T10:04:51.855Z,38.70
2019-04-23T10:07:21.085Z,38.20
2019-04-23T10:09:40.531Z,38.50
2019-04-23T10:12:11.600Z,38.40
2019-04-23T10:14:51.836Z,38.10
2019-04-23T10:17:13.946Z,37.40
2019-04-23T10:19:48.682Z,36.90
2019-04-23T10:22:19.833Z,36.80
2019-04-23T10:24:50.863Z,37.10
2019-04-23T10:27:23.137Z,36.90
2019-04-23T10:29:57.023Z,36.80
2019-04-23T10:32:27.345Z,36.90
2019-04-23T10:35:10.191Z,36.80
2019-04-23T10:37:36.781Z,36.90
2019-04-23T10:40:07.433Z,36.90
2019-04-23T10:42:40.437Z,36.60
2019-04-23T10:45:26.921Z,36.30
2019-04-23T10:48:32.770Z,35.90
2019-04-23T10:51:05.954Z,35.90
2019-04-23T11:01:24.393Z,35.40
2019-04-23T11:06:17.640Z,34.90
2019-04-23T11:08:37.032Z,34.30
2019-04-23T11:11:14.618Z,34.30
2019-04-23T11:13:44.970Z,34.50
2019-04-23T11:21:31.372Z,34.30
2019-04-23T11:24:02.493Z,33.80
2019-04-23T11:26:32.008Z,33.40
2019-04-23T11:28:55.521Z,33.50
2019-04-23T11:31:39.222Z,33.60
2019-04-23T11:34:12.523Z,32.40
2019-04-23T11:36:57.986Z,31.80
2019-04-23T11:38:58.531Z,30.60
2019-04-23T11:41:41.949Z,29.20
2019-04-23T11:46:53.406Z,28.80
2019-04-23T11:49:46.244Z,28.20
2019-04-23T11:54:30.850Z,28.40
2019-04-23T11:57:23.709Z,28.30
2019-04-23T11:59:36.021Z,28.10
2019-04-23T12:02:32.590Z,28.00
2019-04-23T12:05:28.082Z,28.30
2019-04-23T12:08:18.829Z,28.00
2019-04-23T12:10:47.770Z,28.10
2019-04-23T12:13:23.962Z,28.50
2019-04-23T12:15:47.938Z,28.00
2019-04-23T12:18:28.087Z,28.20
2019-04-23T12:21:12.861Z,28.70
2019-04-23T12:23:54.679Z,28.70
2019-04-23T12:26:35.914Z,28.70
2019-04-23T12:29:10.812Z,29.00
2019-04-23T12:31:40.100Z,29.10
2019-04-23T12:34:14.450Z,29.50
2019-04-23T12:37:10.109Z,29.20
2019-04-23T12:39:42.597Z,28.60
2019-04-23T12:42:45.123Z,27.90
2019-04-23T12:44:59.791Z,28.00
2019-04-23T12:47:43.600Z,28.40
2019-04-23T12:52:34.323Z,28.70
2019-04-23T12:55:06.823Z,28.70
2019-04-23T12:57:34.339Z,28.90
2019-04-23T13:05:11.830Z,28.50
2019-04-23T13:07:43.539Z,28.80
2019-04-23T13:10:28.109Z,28.80
2019-04-23T13:12:57.639Z,28.80
2019-04-23T13:15:18.922Z,29.10
2019-04-23T13:20:23.678Z,28.90
2019-04-23T13:22:54.875Z,28.90
2019-04-23T13:25:45.657Z,28.90
2019-04-23T13:33:30.711Z,30.50
2019-04-23T13:36:01.632Z,30.80
2019-04-23T13:38:33.193Z,31.00
2019-04-23T13:41:01.132Z,31.10
2019-04-23T13:43:38.060Z,31.20
2019-04-23T13:46:10.004Z,31.60
2019-04-23T13:48:24.755Z,32.10
2019-04-23T13:51:09.780Z,31.10
2019-04-23T13:56:13.278Z,30.80
2019-04-23T14:04:04.305Z,30.70
2019-04-23T14:09:17.412Z,30.60
2019-04-23T14:16:56.987Z,29.30
2019-04-23T14:19:11.468Z,29.10
2019-04-23T14:21:52.001Z,29.10
2019-04-23T14:24:19.501Z,28.80
2019-04-23T14:26:41.814Z,28.20
2019-04-23T14:29:16.929Z,28.30
2019-04-23T14:31:43.451Z,29.00
2019-04-23T14:34:19.559Z,29.50
2019-04-23T14:37:10.055Z,30.00
2019-04-23T14:39:24.102Z,30.10
2019-04-23T14:42:16.000Z,30.40
2019-04-23T14:44:31.573Z,31.60
2019-04-23T14:47:16.797Z,32.00
2019-04-23T14:50:14.707Z,32.00
2019-04-23T14:55:35.603Z,31.70
2019-04-23T14:57:45.198Z,31.80
2019-04-23T15:00:07.614Z,32.40
2019-04-23T15:02:44.638Z,32.30
2019-04-23T15:05:20.258Z,32.40
2019-04-23T15:07:45.806Z,32.40
2019-04-23T15:10:24.880Z,32.60
2019-04-23T15:12:52.384Z,33.00
2019-04-23T15:15:24.003Z,33.00
2019-04-23T15:18:04.149Z,33.20
2019-04-23T15:20:46.352Z,33.40
2019-04-23T15:23:33.618Z,33.30
2019-04-23T15:26:03.510Z,33.30
2019-04-23T15:31:32.988Z,33.70
2019-04-23T15:37:01.057Z,33.50
2019-04-23T15:45:20.969Z,34.80
2019-04-23T15:48:03.313Z,34.90
2019-04-23T15:53:03.212Z,35.30
2019-04-23T15:55:44.449Z,35.10
2019-04-23T15:58:16.896Z,35.20
2019-04-23T16:00:48.086Z,34.80
2019-04-23T16:02:50.588Z,34.60
2019-04-23T16:05:21.611Z,34.60
2019-04-23T16:08:13.109Z,34.60
2019-04-23T16:11:04.929Z,34.90
2019-04-23T16:13:38.444Z,34.00
2019-04-23T16:16:08.414Z,35.00
2019-04-23T16:21:47.294Z,33.80
2019-04-23T16:24:13.009Z,34.00
2019-04-23T16:26:52.386Z,34.30
2019-04-23T16:34:23.924Z,35.20
2019-04-23T16:36:55.784Z,35.10
2019-04-23T16:39:22.222Z,34.70
2019-04-23T16:42:02.247Z,34.60
2019-04-23T16:44:38.801Z,34.90
2019-04-23T16:47:10.841Z,35.10
2019-04-23T16:49:36.851Z,35.00
2019-04-23T16:52:07.578Z,35.40
2019-04-23T16:54:50.962Z,35.10
2019-04-23T17:00:03.756Z,35.30
2019-04-23T17:02:19.293Z,34.90
2019-04-23T17:04:54.705Z,35.60
2019-04-23T17:07:11.851Z,36.20
2019-04-23T17:10:00.304Z,35.90
2019-04-23T17:12:17.597Z,36.30
2019-04-23T17:15:05.379Z,36.30
2019-04-23T17:17:30.777Z,36.20
2019-04-23T17:20:28.829Z,36.20
2019-04-23T17:22:38.626Z,36.40
2019-04-23T17:27:48.887Z,37.80
2019-04-23T17:30:22.151Z,38.00
2019-04-23T17:32:57.090Z,38.20
2019-04-23T17:35:55.588Z,38.70
2019-04-23T17:41:10.145Z,38.90
2019-04-23T17:43:33.139Z,39.20
2019-04-23T17:46:12.542Z,39.00
2019-04-23T17:48:38.871Z,39.20
2019-04-23T17:51:19.672Z,38.90
2019-04-23T17:54:10.965Z,38.90
2019-04-23T17:57:02.931Z,39.30
2019-04-23T17:59:14.049Z,39.30
2019-04-23T18:02:00.413Z,39.10
2019-04-23T18:04:27.182Z,39.40
2019-04-23T18:06:58.428Z,39.60
2019-04-23T18:12:02.405Z,39.90
2019-04-23T18:14:21.572Z,40.20
2019-04-23T18:17:09.385Z,40.50
2019-04-23T18:19:34.330Z,40.70
2019-04-23T18:22:18.278Z,41.10
2019-04-23T18:25:04.335Z,41.10
2019-04-23T18:27:33.108Z,41.70
2019-04-23T18:30:16.122Z,41.90
2019-04-23T18:33:22.274Z,42.20
2019-04-23T18:35:28.250Z,42.50
2019-04-23T18:37:58.488Z,42.40
2019-04-23T18:40:31.251Z,42.80
2019-04-23T18:43:04.510Z,43.10
2019-04-23T18:45:39.597Z,43.10
2019-04-23T18:48:34.363Z,43.30
2019-04-23T18:50:55.329Z,42.80
2019-04-23T18:53:32.349Z,42.90
2019-04-23T18:58:38.268Z,43.70
2019-04-23T19:01:10.678Z,43.80
2019-04-23T19:06:32.858Z,44.30
2019-04-23T19:09:23.452Z,44.40
2019-04-23T19:12:07.167Z,44.30
2019-04-23T19:14:40.916Z,44.60
2019-04-23T19:17:38.643Z,45.00
2019-04-23T19:19:44.336Z,45.00
2019-04-23T19:24:38.998Z,45.70
2019-04-23T19:27:16.796Z,45.20
2019-04-23T19:29:59.838Z,45.00
2019-04-23T19:32:08.492Z,45.90
2019-04-23T19:34:42.742Z,46.20
2019-04-23T19:37:44.210Z,46.50
2019-04-23T19:40:00.912Z,46.50
2019-04-23T19:42:18.052Z,46.20
2019-04-23T19:47:41.451Z,47.10
2019-04-23T19:50:02.187Z,47.30
2019-04-23T19:52:52.592Z,46.90
2019-04-23T19:54:58.790Z,47.30
2019-04-23T19:57:54.961Z,47.40
2019-04-23T20:00:04.336Z,47.90
2019-04-23T20:03:02.677Z,48.30
2019-04-23T20:05:07.140Z,48.00
2019-04-23T20:08:02.571Z,47.90
2019-04-23T20:10:11.706Z,48.20
2019-04-23T20:13:01.524Z,48.30
2019-04-23T20:15:18.043Z,48.50
2019-04-23T20:17:51.248Z,48.50
2019-04-23T20:20:25.447Z,48.70
2019-04-23T20:22:56.814Z,48.80
2019-04-23T20:28:14.990Z,48.90
2019-04-23T20:31:16.110Z,49.00
2019-04-23T20:34:07.653Z,49.30
2019-04-23T20:36:32.584Z,50.30
2019-04-23T20:38:59.414Z,49.50
2019-04-23T20:41:34.945Z,49.50
2019-04-23T20:44:01.344Z,49.50
2019-04-23T20:46:33.852Z,49.40
2019-04-23T20:49:02.778Z,49.50
2019-04-23T20:51:34.407Z,49.60
2019-04-23T20:54:08.832Z,50.60
2019-04-23T20:56:42.465Z,50.00
2019-04-23T20:59:15.720Z,50.10
2019-04-23T21:02:00.476Z,50.30
2019-04-23T21:04:24.047Z,50.30
2019-04-23T21:06:56.582Z,50.30
2019-04-23T21:11:59.194Z,50.50
2019-04-23T21:14:41.081Z,50.90
2019-04-23T21:16:56.092Z,50.80
2019-04-23T21:19:39.491Z,51.20
2019-04-23T21:22:09.567Z,51.20
2019-04-23T21:24:42.936Z,51.50
2019-04-23T21:27:15.344Z,51.60
2019-04-23T21:29:56.950Z,52.20
2019-04-23T21:32:27.274Z,51.70
2019-04-23T21:34:58.175Z,51.80
2019-04-23T21:37:23.842Z,51.90
2019-04-23T21:40:19.119Z,51.90
2019-04-23T21:42:44.365Z,52.10
2019-04-23T21:45:02.203Z,52.30
2019-04-23T21:47:46.292Z,52.50
2019-04-23T21:50:14.119Z,52.60
2019-04-23T21:55:09.505Z,52.90
2019-04-23T21:57:57.870Z,53.00
2019-04-23T22:00:36.495Z,53.30
2019-04-23T22:02:59.441Z,53.60
2019-04-23T22:05:24.998Z,53.90
2019-04-23T22:08:03.552Z,53.70
2019-04-23T22:10:25.629Z,54.10
2019-04-23T22:15:32.930Z,55.00
2019-04-23T22:20:34.457Z,55.60
2019-04-23T22:25:42.034Z,55.90
2019-04-23T22:28:05.301Z,55.90
2019-04-23T22:33:10.061Z,56.00
2019-04-23T22:35:54.333Z,56.10
2019-04-23T22:38:20.404Z,56.50
2019-04-23T22:41:01.906Z,56.60
2019-04-23T22:43:31.125Z,56.60
2019-04-23T22:48:47.694Z,57.00
2019-04-23T22:51:10.919Z,57.00
2019-04-23T22:53:46.614Z,57.00
2019-04-23T22:56:17.767Z,57.00
2019-04-23T22:58:51.261Z,57.40
2019-04-23T23:03:59.024Z,57.90
2019-04-23T23:06:45.927Z,57.80
2019-04-23T23:11:35.425Z,58.50
2019-04-23T23:14:23.729Z,58.60
2019-04-23T23:19:21.735Z,58.90
2019-04-23T23:21:51.654Z,59.60
2019-04-23T23:24:14.531Z,59.40
2019-04-23T23:26:55.129Z,59.60
2019-04-23T23:29:20.293Z,59.90
2019-04-23T23:34:30.515Z,60.00
2019-04-23T23:37:03.745Z,60.50
2019-04-23T23:42:07.394Z,60.00
2019-04-23T23:44:50.986Z,60.10
2019-04-23T23:47:07.341Z,60.50
2019-04-23T23:49:34.266Z,60.70
2019-04-23T23:52:13.189Z,61.20
2019-04-23T23:54:35.712Z,61.20
2019-04-23T23:57:21.403Z,61.30
